| time (UTC) | temp C | wind direction | speed KPH | gust KPH | rain 1hr cm | rain 24hr cm | rain mn cm | humidity % | barometer mb |
| 20260505111517 | 21 | 315 | 0.0 | 1.6 | 0.13 | 1.85 | 1.70 | 100 | 1018.6 |
| 20260505110558 | 21 | 324 | 0.0 | 1.6 | 0.18 | 1.85 | 1.70 | 100 | 1018.4 |
| 20260505101517 | 20 | 1 | 1.6 | 3.2 | 0.79 | 1.70 | 1.57 | 100 | 1020.6 |
| 20260505100517 | 20 | 356 | 1.6 | 3.2 | 1.04 | 1.68 | 1.55 | 100 | 1021.4 |
| 20260505095616 | 19 | 360 | 1.6 | 1.6 | 1.47 | 1.68 | 1.55 | 100 | 1022.7 |
| 20260505094517 | 18 | 341 | 1.6 | 1.6 | 1.45 | 1.65 | 1.50 | 100 | 1023.9 |
| 20260505093519 | 18 | 1 | 3.2 | 8.0 | 1.32 | 1.50 | 1.37 | 100 | 1024.2 |
| 20260505092520 | 18 | 32 | 6.4 | 14.5 | 1.02 | 1.19 | 1.07 | 100 | 1024.7 |
| 20260505091518 | 18 | 341 | 1.6 | 4.8 | 0.74 | 0.99 | 0.79 | 100 | 1024.2 |
| 20260505090539 | 20 | 35 | 3.2 | 9.7 | 0.46 | 0.69 | 0.51 | 100 | 1021.8 |
| 20260505085517 | 23 | 34 | 3.2 | 16.1 | 0.00 | 0.28 | 0.05 | 100 | 1016.0 |
| 20260505084517 | 25 | 0.0 | 0.0 | 0.05 | 0.30 | 0.05 | 100 | 1012.2 | |
| 20260505083518 | 26 | 208 | 0.0 | 1.6 | 0.05 | 0.30 | 0.05 | 100 | 1010.9 |
| 20260505082516 | 26 | 235 | 0.0 | 1.6 | 0.05 | 0.33 | 0.05 | 100 | 1011.0 |
| 20260505081517 | 26 | 241 | 1.6 | 1.6 | 0.05 | 0.36 | 0.05 | 100 | 1011.6 |
| 20260505080517 | 25 | 277 | 0.0 | 1.6 | 0.05 | 0.51 | 0.05 | 100 | 1012.3 |
| 20260505075516 | 25 | 284 | 0.0 | 1.6 | 0.05 | 0.81 | 0.05 | 100 | 1013.4 |
| 20260505074538 | 26 | 311 | 1.6 | 1.6 | 0.00 | 0.86 | 0.00 | 100 | 1012.3 |
| 20260505073518 | 26 | 295 | 1.6 | 1.6 | 0.00 | 0.86 | 0.00 | 100 | 1012.5 |
| 20260505072516 | 26 | 307 | 0.0 | 1.6 | 0.00 | 0.86 | 0.00 | 100 | 1011.8 |
| 20260505071518 | 27 | 349 | 0.0 | 1.6 | 0.00 | 0.86 | 0.00 | 81 | 1010.7 |
| 20260505070534 | 27 | 297 | 0.0 | 1.6 | 0.00 | 0.86 | 0.00 | 68 | 1009.5 |
| 20260505065523 | 28 | 171 | 0.0 | 3.2 | 0.00 | 0.86 | 0.00 | 62 | 1008.2 |
| 20260505064538 | 29 | 311 | 0.0 | 1.6 | 0.00 | 0.86 | 0.00 | 58 | 1007.2 |
| 20260505063518 | 29 | 319 | 1.6 | 3.2 | 0.00 | 0.86 | 0.00 | 56 | 1007.6 |
| 20260505062517 | 30 | 307 | 1.6 | 4.8 | 0.00 | 0.86 | 0.00 | 56 | 1006.3 |
| 20260505061518 | 30 | 267 | 1.6 | 4.8 | 0.00 | 0.86 | 0.00 | 57 | 1005.3 |
| 20260505060518 | 31 | 258 | 1.6 | 4.8 | 0.00 | 0.86 | 0.00 | 54 | 1005.0 |
| 20260505055517 | 31 | 271 | 1.6 | 4.8 | 0.00 | 0.86 | 0.00 | 52 | 1003.8 |
| 20260505054537 | 31 | 254 | 1.6 | 4.8 | 0.00 | 0.86 | 0.00 | 54 | 1004.8 |
| 20260505053536 | 31 | 302 | 1.6 | 4.8 | 0.00 | 0.86 | 0.00 | 54 | 1004.8 |
| 20260505052517 | 32 | 259 | 1.6 | 3.2 | 0.00 | 0.86 | 0.00 | 55 | 1003.3 |
| 20260505051519 | 32 | 236 | 1.6 | 4.8 | 0.00 | 0.86 | 0.00 | 55 | 1003.1 |
| 20260505050517 | 30 | 178 | 1.6 | 3.2 | 0.00 | 0.86 | 0.00 | 63 | 1005.8 |
| 20260505041518 | 29 | 291 | 1.6 | 6.4 | 0.00 | 0.86 | 0.00 | 80 | 1008.3 |
| 20260505040516 | 28 | 287 | 3.2 | 6.4 | 0.00 | 0.86 | 0.00 | 82 | 1008.8 |
| 20260505035518 | 28 | 287 | 3.2 | 6.4 | 0.00 | 0.86 | 0.00 | 91 | 1010.3 |
| 20260505034518 | 28 | 276 | 3.2 | 8.0 | 0.00 | 0.86 | 0.00 | 92 | 1010.6 |
| 20260505033536 | 28 | 258 | 3.2 | 6.4 | 0.00 | 0.86 | 0.00 | 91 | 1010.3 |
| 20260505032517 | 27 | 245 | 1.6 | 6.4 | 0.00 | 0.86 | 0.00 | 95 | 1011.2 |
| 20260505031518 | 27 | 258 | 3.2 | 6.4 | 0.00 | 0.86 | 0.00 | 98 | 1012.0 |
| 20260505030520 | 26 | 254 | 3.2 | 9.7 | 0.00 | 0.86 | 0.00 | 97 | 1012.6 |
| 20260505025517 | 24 | 241 | 1.6 | 4.8 | 0.00 | 0.86 | 0.00 | 100 | 1016.5 |
| 20260505024537 | 23 | 278 | 1.6 | 4.8 | 0.00 | 0.86 | 0.00 | 100 | 1017.5 |
| 20260505023536 | 23 | 269 | 1.6 | 6.4 | 0.00 | 0.86 | 0.00 | 100 | 1018.1 |
| 20260505022516 | 23 | 267 | 1.6 | 3.2 | 0.00 | 0.86 | 0.00 | 100 | 1018.2 |
| 20260505021517 | 22 | 217 | 1.6 | 3.2 | 0.00 | 0.86 | 0.00 | 100 | 1019.1 |
| 20260504221017 | 20 | 3 | 1.6 | 1.6 | 0.00 | 0.86 | 0.00 | 100 | 1022.2 |
| 20260504220018 | 20 | 315 | 0.0 | 1.6 | 0.00 | 0.86 | 0.00 | 100 | 1022.5 |
| 20260504215018 | 20 | 6 | 0.0 | 1.6 | 0.00 | 0.86 | 0.00 | 100 | 1022.2 |
| 20260504214017 | 20 | 301 | 1.6 | 1.6 | 0.00 | 0.86 | 0.00 | 100 | 1022.0 |
| 20260504213018 | 20 | 305 | 0.0 | 1.6 | 0.00 | 0.86 | 0.00 | 100 | 1021.7 |
| 20260504212017 | 20 | 180 | 0.0 | 1.6 | 0.00 | 0.86 | 0.00 | 100 | 1021.3 |
| 20260504211117 | 20 | 259 | 0.0 | 1.6 | 0.00 | 0.86 | 0.00 | 100 | 1021.0 |
| 20260504210018 | 20 | 270 | 0.0 | 1.6 | 0.00 | 0.86 | 0.00 | 100 | 1021.2 |
| 20260504205016 | 20 | 279 | 0.0 | 1.6 | 0.00 | 0.86 | 0.00 | 100 | 1021.2 |
| 20260504204037 | 20 | 270 | 1.6 | 1.6 | 0.00 | 0.86 | 0.00 | 100 | 1021.2 |
| 20260504202019 | 20 | 283 | 1.6 | 1.6 | 0.00 | 0.86 | 0.00 | 100 | 1021.5 |
| 20260504201038 | 20 | 239 | 0.0 | 1.6 | 0.00 | 0.86 | 0.00 | 100 | 1021.4 |
| 20260504200018 | 20 | 261 | 0.0 | 1.6 | 0.00 | 0.86 | 0.00 | 100 | 1021.1 |
| 20260504195017 | 20 | 285 | 1.6 | 1.6 | 0.00 | 0.86 | 0.00 | 100 | 1021.1 |
| 20260504194019 | 20 | 293 | 1.6 | 1.6 | 0.00 | 0.86 | 0.00 | 100 | 1021.2 |
| 20260504193017 | 21 | 196 | 0.0 | 1.6 | 0.00 | 0.86 | 0.00 | 100 | 1020.6 |
| 20260504192017 | 21 | 231 | 1.6 | 3.2 | 0.00 | 0.86 | 0.00 | 100 | 1020.8 |
| 20260504191016 | 21 | 222 | 1.6 | 3.2 | 0.00 | 0.86 | 0.00 | 100 | 1020.8 |
| 20260504190023 | 20 | 246 | 1.6 | 3.2 | 0.00 | 0.86 | 0.00 | 100 | 1021.2 |
| 20260504185017 | 20 | 259 | 1.6 | 4.8 | 0.00 | 0.86 | 0.00 | 100 | 1021.2 |
| 20260504184016 | 21 | 242 | 1.6 | 3.2 | 0.00 | 0.86 | 0.00 | 100 | 1021.3 |
| 20260504183017 | 21 | 253 | 1.6 | 4.8 | 0.00 | 0.86 | 0.00 | 100 | 1021.5 |
| 20260504182017 | 21 | 259 | 1.6 | 3.2 | 0.00 | 0.86 | 0.86 | 100 | 1021.8 |
| 20260504181036 | 21 | 298 | 1.6 | 1.6 | 0.00 | 0.86 | 0.86 | 100 | 1021.9 |
| 20260504180017 | 21 | 313 | 0.0 | 1.6 | 0.00 | 0.86 | 0.86 | 100 | 1021.5 |
| 20260504175018 | 21 | 41 | 1.6 | 3.2 | 0.00 | 0.86 | 0.86 | 100 | 1021.8 |
| 20260504174016 | 21 | 54 | 1.6 | 4.8 | 0.00 | 0.86 | 0.86 | 100 | 1021.6 |
| 20260504173017 | 21 | 55 | 1.6 | 1.6 | 0.00 | 0.86 | 0.86 | 100 | 1021.0 |
| 20260504172016 | 21 | 76 | 3.2 | 6.4 | 0.00 | 0.86 | 0.86 | 100 | 1020.0 |
| 20260504171017 | 21 | 29 | 1.6 | 3.2 | 0.00 | 0.86 | 0.86 | 97 | 1019.7 |
| 20260504151017 | 20 | 39 | 3.2 | 4.8 | 0.00 | 0.84 | 0.84 | 100 | 1022.4 |
| 20260504141018 | 20 | 8 | 1.6 | 3.2 | 0.03 | 0.84 | 0.84 | 100 | 1021.6 |